sensor_id;sensor_type;location;lat;lon;timestamp;P1;durP1;ratioP1;P2;durP2;ratioP2
17488;SDS011;8861;52.644;4.734;2023-11-18T00:01:50;41.50;;;24.43;;
17488;SDS011;8861;52.644;4.734;2023-11-18T00:04:17;42.67;;;25.10;;
17488;SDS011;8861;52.644;4.734;2023-11-18T00:06:44;39.60;;;23.27;;
17488;SDS011;8861;52.644;4.734;2023-11-18T00:09:11;39.13;;;23.67;;
17488;SDS011;8861;52.644;4.734;2023-11-18T00:11:39;41.27;;;24.90;;
17488;SDS011;8861;52.644;4.734;2023-11-18T00:14:07;38.37;;;23.40;;
17488;SDS011;8861;52.644;4.734;2023-11-18T00:16:35;47.67;;;26.20;;
17488;SDS011;8861;52.644;4.734;2023-11-18T00:19:03;42.83;;;23.93;;
17488;SDS011;8861;52.644;4.734;2023-11-18T00:21:31;42.13;;;24.20;;
17488;SDS011;8861;52.644;4.734;2023-11-18T00:23:58;46.53;;;26.27;;
17488;SDS011;8861;52.644;4.734;2023-11-18T00:26:24;39.37;;;24.40;;
17488;SDS011;8861;52.644;4.734;2023-11-18T00:28:51;41.03;;;24.57;;
17488;SDS011;8861;52.644;4.734;2023-11-18T00:31:18;46.33;;;25.73;;
17488;SDS011;8861;52.644;4.734;2023-11-18T00:33:45;45.03;;;24.30;;
17488;SDS011;8861;52.644;4.734;2023-11-18T00:36:14;45.10;;;25.60;;
17488;SDS011;8861;52.644;4.734;2023-11-18T00:38:40;43.20;;;25.97;;
17488;SDS011;8861;52.644;4.734;2023-11-18T00:41:07;43.00;;;25.13;;
17488;SDS011;8861;52.644;4.734;2023-11-18T00:43:34;43.93;;;25.57;;
17488;SDS011;8861;52.644;4.734;2023-11-18T00:46:01;43.30;;;25.00;;
17488;SDS011;8861;52.644;4.734;2023-11-18T00:48:30;42.10;;;24.80;;
17488;SDS011;8861;52.644;4.734;2023-11-18T00:50:57;40.00;;;23.47;;
17488;SDS011;8861;52.644;4.734;2023-11-18T00:53:25;39.07;;;24.13;;
17488;SDS011;8861;52.644;4.734;2023-11-18T00:55:52;42.80;;;24.47;;
17488;SDS011;8861;52.644;4.734;2023-11-18T00:58:19;41.63;;;24.63;;
17488;SDS011;8861;52.644;4.734;2023-11-18T01:00:46;43.13;;;24.43;;
17488;SDS011;8861;52.644;4.734;2023-11-18T01:03:13;42.40;;;24.83;;
17488;SDS011;8861;52.644;4.734;2023-11-18T01:05:39;42.30;;;24.57;;
17488;SDS011;8861;52.644;4.734;2023-11-18T01:08:07;40.33;;;23.77;;
17488;SDS011;8861;52.644;4.734;2023-11-18T01:10:35;41.33;;;23.40;;
17488;SDS011;8861;52.644;4.734;2023-11-18T01:13:01;43.10;;;24.83;;
17488;SDS011;8861;52.644;4.734;2023-11-18T01:15:28;43.13;;;24.43;;
17488;SDS011;8861;52.644;4.734;2023-11-18T01:17:57;39.80;;;24.10;;
17488;SDS011;8861;52.644;4.734;2023-11-18T01:20:24;40.03;;;23.50;;
17488;SDS011;8861;52.644;4.734;2023-11-18T01:22:51;42.10;;;24.10;;
17488;SDS011;8861;52.644;4.734;2023-11-18T01:25:18;37.17;;;22.23;;
17488;SDS011;8861;52.644;4.734;2023-11-18T01:27:46;38.97;;;22.80;;
17488;SDS011;8861;52.644;4.734;2023-11-18T01:30:14;36.67;;;21.77;;
17488;SDS011;8861;52.644;4.734;2023-11-18T01:32:41;37.13;;;21.53;;
17488;SDS011;8861;52.644;4.734;2023-11-18T01:35:08;36.30;;;21.77;;
17488;SDS011;8861;52.644;4.734;2023-11-18T01:37:37;39.10;;;22.83;;
17488;SDS011;8861;52.644;4.734;2023-11-18T01:40:05;35.83;;;21.70;;
17488;SDS011;8861;52.644;4.734;2023-11-18T01:42:33;38.97;;;22.27;;
17488;SDS011;8861;52.644;4.734;2023-11-18T01:45:01;36.67;;;21.87;;
17488;SDS011;8861;52.644;4.734;2023-11-18T01:47:29;36.83;;;21.90;;
17488;SDS011;8861;52.644;4.734;2023-11-18T01:49:57;38.40;;;22.90;;
17488;SDS011;8861;52.644;4.734;2023-11-18T01:52:25;39.07;;;23.73;;
17488;SDS011;8861;52.644;4.734;2023-11-18T01:54:55;40.73;;;22.77;;
17488;SDS011;8861;52.644;4.734;2023-11-18T01:57:22;39.23;;;24.23;;
17488;SDS011;8861;52.644;4.734;2023-11-18T01:59:51;41.23;;;24.47;;
17488;SDS011;8861;52.644;4.734;2023-11-18T02:02:20;38.10;;;23.93;;
17488;SDS011;8861;52.644;4.734;2023-11-18T02:04:47;39.97;;;23.30;;
17488;SDS011;8861;52.644;4.734;2023-11-18T02:07:15;45.20;;;25.67;;
17488;SDS011;8861;52.644;4.734;2023-11-18T02:09:43;40.77;;;24.17;;
17488;SDS011;8861;52.644;4.734;2023-11-18T02:12:13;43.67;;;25.77;;
17488;SDS011;8861;52.644;4.734;2023-11-18T02:14:46;41.93;;;24.70;;
17488;SDS011;8861;52.644;4.734;2023-11-18T02:17:17;43.03;;;25.23;;
17488;SDS011;8861;52.644;4.734;2023-11-18T02:19:49;38.50;;;23.57;;
17488;SDS011;8861;52.644;4.734;2023-11-18T02:22:18;38.70;;;24.73;;
17488;SDS011;8861;52.644;4.734;2023-11-18T02:24:46;44.00;;;23.87;;
17488;SDS011;8861;52.644;4.734;2023-11-18T02:27:15;45.90;;;27.07;;
17488;SDS011;8861;52.644;4.734;2023-11-18T02:29:45;44.90;;;26.17;;
17488;SDS011;8861;52.644;4.734;2023-11-18T02:32:15;46.97;;;26.97;;
17488;SDS011;8861;52.644;4.734;2023-11-18T02:34:49;48.27;;;26.73;;
17488;SDS011;8861;52.644;4.734;2023-11-18T02:37:22;48.30;;;27.13;;
17488;SDS011;8861;52.644;4.734;2023-11-18T02:39:53;51.57;;;28.93;;
17488;SDS011;8861;52.644;4.734;2023-11-18T02:42:34;49.53;;;28.63;;
17488;SDS011;8861;52.644;4.734;2023-11-18T02:45:03;50.47;;;29.77;;
17488;SDS011;8861;52.644;4.734;2023-11-18T02:47:32;43.40;;;26.70;;
17488;SDS011;8861;52.644;4.734;2023-11-18T02:50:00;48.03;;;27.50;;
17488;SDS011;8861;52.644;4.734;2023-11-18T02:52:35;45.00;;;25.73;;
17488;SDS011;8861;52.644;4.734;2023-11-18T02:55:03;45.63;;;28.33;;
17488;SDS011;8861;52.644;4.734;2023-11-18T02:57:31;50.67;;;28.53;;
17488;SDS011;8861;52.644;4.734;2023-11-18T02:59:59;49.47;;;27.57;;
17488;SDS011;8861;52.644;4.734;2023-11-18T03:02:29;45.87;;;26.47;;
17488;SDS011;8861;52.644;4.734;2023-11-18T03:04:56;46.63;;;26.70;;
17488;SDS011;8861;52.644;4.734;2023-11-18T03:07:23;45.43;;;26.60;;
17488;SDS011;8861;52.644;4.734;2023-11-18T03:09:52;47.40;;;27.13;;
17488;SDS011;8861;52.644;4.734;2023-11-18T03:12:22;45.97;;;27.57;;
17488;SDS011;8861;52.644;4.734;2023-11-18T03:14:53;45.17;;;26.87;;
17488;SDS011;8861;52.644;4.734;2023-11-18T03:17:22;46.30;;;26.63;;
17488;SDS011;8861;52.644;4.734;2023-11-18T03:19:49;48.77;;;26.70;;
17488;SDS011;8861;52.644;4.734;2023-11-18T03:22:16;48.07;;;26.90;;
17488;SDS011;8861;52.644;4.734;2023-11-18T03:24:43;45.53;;;26.53;;
17488;SDS011;8861;52.644;4.734;2023-11-18T03:27:10;45.37;;;27.57;;
17488;SDS011;8861;52.644;4.734;2023-11-18T03:29:37;49.00;;;27.97;;
17488;SDS011;8861;52.644;4.734;2023-11-18T03:32:06;45.93;;;25.77;;
17488;SDS011;8861;52.644;4.734;2023-11-18T03:34:33;46.93;;;28.13;;
17488;SDS011;8861;52.644;4.734;2023-11-18T03:37:00;48.23;;;27.83;;
17488;SDS011;8861;52.644;4.734;2023-11-18T03:39:27;45.97;;;26.70;;
17488;SDS011;8861;52.644;4.734;2023-11-18T03:41:53;45.57;;;27.00;;
17488;SDS011;8861;52.644;4.734;2023-11-18T03:44:22;47.63;;;27.03;;
17488;SDS011;8861;52.644;4.734;2023-11-18T03:46:50;41.77;;;25.43;;
17488;SDS011;8861;52.644;4.734;2023-11-18T03:49:18;43.93;;;25.83;;
17488;SDS011;8861;52.644;4.734;2023-11-18T03:51:46;42.20;;;25.47;;
17488;SDS011;8861;52.644;4.734;2023-11-18T03:54:13;42.77;;;25.40;;
17488;SDS011;8861;52.644;4.734;2023-11-18T03:56:40;40.73;;;23.77;;
17488;SDS011;8861;52.644;4.734;2023-11-18T03:59:07;40.93;;;23.97;;
17488;SDS011;8861;52.644;4.734;2023-11-18T04:01:34;45.03;;;23.97;;
17488;SDS011;8861;52.644;4.734;2023-11-18T04:04:01;36.40;;;23.20;;
17488;SDS011;8861;52.644;4.734;2023-11-18T04:06:30;35.63;;;21.80;;
17488;SDS011;8861;52.644;4.734;2023-11-18T04:08:57;35.27;;;21.97;;
17488;SDS011;8861;52.644;4.734;2023-11-18T04:11:25;41.43;;;24.20;;
17488;SDS011;8861;52.644;4.734;2023-11-18T04:13:52;34.73;;;21.57;;
17488;SDS011;8861;52.644;4.734;2023-11-18T04:16:19;36.73;;;21.70;;
17488;SDS011;8861;52.644;4.734;2023-11-18T04:18:46;37.33;;;21.30;;
17488;SDS011;8861;52.644;4.734;2023-11-18T04:21:13;34.83;;;20.73;;
17488;SDS011;8861;52.644;4.734;2023-11-18T04:23:42;31.67;;;20.40;;
17488;SDS011;8861;52.644;4.734;2023-11-18T04:26:11;35.57;;;20.30;;
17488;SDS011;8861;52.644;4.734;2023-11-18T04:28:38;36.90;;;21.30;;
17488;SDS011;8861;52.644;4.734;2023-11-18T04:31:05;33.00;;;20.73;;
17488;SDS011;8861;52.644;4.734;2023-11-18T04:33:32;34.03;;;20.57;;
17488;SDS011;8861;52.644;4.734;2023-11-18T04:35:59;34.63;;;20.37;;
17488;SDS011;8861;52.644;4.734;2023-11-18T04:38:26;37.60;;;21.27;;
17488;SDS011;8861;52.644;4.734;2023-11-18T04:40:55;39.10;;;21.90;;
17488;SDS011;8861;52.644;4.734;2023-11-18T04:43:20;36.97;;;22.63;;
17488;SDS011;8861;52.644;4.734;2023-11-18T04:45:48;31.70;;;19.93;;
17488;SDS011;8861;52.644;4.734;2023-11-18T04:48:15;34.67;;;20.13;;
17488;SDS011;8861;52.644;4.734;2023-11-18T04:50:42;34.03;;;21.03;;
17488;SDS011;8861;52.644;4.734;2023-11-18T04:53:09;32.87;;;21.03;;
17488;SDS011;8861;52.644;4.734;2023-11-18T04:55:37;32.33;;;19.70;;
17488;SDS011;8861;52.644;4.734;2023-11-18T04:58:05;30.70;;;19.70;;
17488;SDS011;8861;52.644;4.734;2023-11-18T05:00:34;31.27;;;19.23;;
17488;SDS011;8861;52.644;4.734;2023-11-18T05:03:03;29.60;;;18.33;;
17488;SDS011;8861;52.644;4.734;2023-11-18T05:05:30;29.00;;;18.87;;
17488;SDS011;8861;52.644;4.734;2023-11-18T05:07:57;38.93;;;20.67;;
17488;SDS011;8861;52.644;4.734;2023-11-18T05:10:24;33.27;;;19.60;;
17488;SDS011;8861;52.644;4.734;2023-11-18T05:12:51;34.67;;;19.80;;
17488;SDS011;8861;52.644;4.734;2023-11-18T05:15:22;35.77;;;19.70;;
17488;SDS011;8861;52.644;4.734;2023-11-18T05:17:50;30.17;;;19.93;;
17488;SDS011;8861;52.644;4.734;2023-11-18T05:20:17;35.60;;;19.97;;
17488;SDS011;8861;52.644;4.734;2023-11-18T05:22:43;31.13;;;18.23;;
17488;SDS011;8861;52.644;4.734;2023-11-18T05:25:10;30.97;;;18.23;;
17488;SDS011;8861;52.644;4.734;2023-11-18T05:27:37;28.90;;;17.63;;
17488;SDS011;8861;52.644;4.734;2023-11-18T05:30:06;33.07;;;20.33;;
17488;SDS011;8861;52.644;4.734;2023-11-18T05:32:35;26.80;;;17.57;;
17488;SDS011;8861;52.644;4.734;2023-11-18T05:35:03;29.93;;;18.20;;
17488;SDS011;8861;52.644;4.734;2023-11-18T05:37:31;29.67;;;17.47;;
17488;SDS011;8861;52.644;4.734;2023-11-18T05:40:00;32.50;;;18.40;;
17488;SDS011;8861;52.644;4.734;2023-11-18T05:42:31;29.03;;;17.97;;
17488;SDS011;8861;52.644;4.734;2023-11-18T05:44:59;31.20;;;18.90;;
17488;SDS011;8861;52.644;4.734;2023-11-18T05:47:26;28.00;;;16.87;;
17488;SDS011;8861;52.644;4.734;2023-11-18T05:49:55;31.87;;;18.60;;
17488;SDS011;8861;52.644;4.734;2023-11-18T05:52:22;36.33;;;19.73;;
17488;SDS011;8861;52.644;4.734;2023-11-18T05:54:49;29.53;;;18.87;;
17488;SDS011;8861;52.644;4.734;2023-11-18T05:57:16;29.17;;;18.53;;
17488;SDS011;8861;52.644;4.734;2023-11-18T05:59:43;32.37;;;18.97;;
17488;SDS011;8861;52.644;4.734;2023-11-18T06:02:11;33.77;;;19.60;;
17488;SDS011;8861;52.644;4.734;2023-11-18T06:04:42;32.17;;;19.67;;
17488;SDS011;8861;52.644;4.734;2023-11-18T06:07:11;31.17;;;19.23;;
17488;SDS011;8861;52.644;4.734;2023-11-18T06:09:39;32.03;;;18.43;;
17488;SDS011;8861;52.644;4.734;2023-11-18T06:12:07;30.50;;;17.90;;
17488;SDS011;8861;52.644;4.734;2023-11-18T06:14:35;27.83;;;17.30;;
17488;SDS011;8861;52.644;4.734;2023-11-18T06:17:02;33.87;;;19.27;;
17488;SDS011;8861;52.644;4.734;2023-11-18T06:19:32;30.47;;;17.80;;
17488;SDS011;8861;52.644;4.734;2023-11-18T06:21:59;29.77;;;17.23;;
17488;SDS011;8861;52.644;4.734;2023-11-18T06:24:28;31.77;;;17.13;;
17488;SDS011;8861;52.644;4.734;2023-11-18T06:26:55;28.47;;;16.80;;
17488;SDS011;8861;52.644;4.734;2023-11-18T06:29:23;31.80;;;18.43;;
17488;SDS011;8861;52.644;4.734;2023-11-18T06:31:49;32.70;;;18.33;;
17488;SDS011;8861;52.644;4.734;2023-11-18T06:34:17;33.93;;;18.53;;
17488;SDS011;8861;52.644;4.734;2023-11-18T06:36:46;28.83;;;17.63;;
17488;SDS011;8861;52.644;4.734;2023-11-18T06:39:12;29.87;;;18.33;;
17488;SDS011;8861;52.644;4.734;2023-11-18T06:41:42;30.23;;;16.97;;
17488;SDS011;8861;52.644;4.734;2023-11-18T06:44:13;30.07;;;18.33;;
17488;SDS011;8861;52.644;4.734;2023-11-18T06:46:43;36.93;;;19.30;;
17488;SDS011;8861;52.644;4.734;2023-11-18T06:49:10;30.63;;;18.17;;
17488;SDS011;8861;52.644;4.734;2023-11-18T06:51:40;31.70;;;17.73;;
17488;SDS011;8861;52.644;4.734;2023-11-18T06:54:07;32.70;;;17.83;;
17488;SDS011;8861;52.644;4.734;2023-11-18T06:56:35;29.33;;;17.17;;
17488;SDS011;8861;52.644;4.734;2023-11-18T06:59:05;30.13;;;18.00;;
17488;SDS011;8861;52.644;4.734;2023-11-18T07:01:32;35.67;;;18.43;;
17488;SDS011;8861;52.644;4.734;2023-11-18T07:04:00;34.00;;;18.40;;
17488;SDS011;8861;52.644;4.734;2023-11-18T07:06:28;29.23;;;16.80;;
17488;SDS011;8861;52.644;4.734;2023-11-18T07:08:56;33.83;;;18.30;;
17488;SDS011;8861;52.644;4.734;2023-11-18T07:11:25;26.93;;;17.07;;
17488;SDS011;8861;52.644;4.734;2023-11-18T07:13:52;32.13;;;17.87;;
17488;SDS011;8861;52.644;4.734;2023-11-18T07:16:23;38.33;;;19.27;;
17488;SDS011;8861;52.644;4.734;2023-11-18T07:18:50;36.50;;;18.80;;
17488;SDS011;8861;52.644;4.734;2023-11-18T07:21:17;36.10;;;18.57;;
17488;SDS011;8861;52.644;4.734;2023-11-18T07:23:45;29.60;;;17.57;;
17488;SDS011;8861;52.644;4.734;2023-11-18T07:26:11;33.50;;;19.10;;
17488;SDS011;8861;52.644;4.734;2023-11-18T07:28:40;33.87;;;18.23;;
17488;SDS011;8861;52.644;4.734;2023-11-18T07:31:07;29.87;;;18.13;;
17488;SDS011;8861;52.644;4.734;2023-11-18T07:33:35;32.20;;;18.43;;
17488;SDS011;8861;52.644;4.734;2023-11-18T07:36:02;28.17;;;17.13;;
17488;SDS011;8861;52.644;4.734;2023-11-18T07:38:31;33.23;;;18.30;;
17488;SDS011;8861;52.644;4.734;2023-11-18T07:40:59;34.87;;;19.77;;
17488;SDS011;8861;52.644;4.734;2023-11-18T07:43:27;33.37;;;18.10;;
17488;SDS011;8861;52.644;4.734;2023-11-18T07:45:55;35.40;;;18.10;;
17488;SDS011;8861;52.644;4.734;2023-11-18T07:48:22;37.53;;;18.47;;
17488;SDS011;8861;52.644;4.734;2023-11-18T07:50:50;35.03;;;17.83;;
17488;SDS011;8861;52.644;4.734;2023-11-18T07:53:17;35.67;;;16.97;;
17488;SDS011;8861;52.644;4.734;2023-11-18T07:55:44;34.07;;;15.50;;
17488;SDS011;8861;52.644;4.734;2023-11-18T07:58:15;30.47;;;15.77;;
17488;SDS011;8861;52.644;4.734;2023-11-18T08:00:43;29.40;;;14.97;;
17488;SDS011;8861;52.644;4.734;2023-11-18T08:03:11;27.13;;;15.07;;
17488;SDS011;8861;52.644;4.734;2023-11-18T08:05:39;25.33;;;14.93;;
17488;SDS011;8861;52.644;4.734;2023-11-18T08:08:10;32.50;;;17.67;;
17488;SDS011;8861;52.644;4.734;2023-11-18T08:10:37;29.70;;;16.53;;
17488;SDS011;8861;52.644;4.734;2023-11-18T08:13:05;29.80;;;17.07;;
17488;SDS011;8861;52.644;4.734;2023-11-18T08:15:33;30.13;;;17.03;;
17488;SDS011;8861;52.644;4.734;2023-11-18T08:18:00;31.90;;;17.87;;
17488;SDS011;8861;52.644;4.734;2023-11-18T08:20:27;33.43;;;18.17;;
17488;SDS011;8861;52.644;4.734;2023-11-18T08:22:55;36.20;;;19.20;;
17488;SDS011;8861;52.644;4.734;2023-11-18T08:25:23;37.00;;;19.60;;
17488;SDS011;8861;52.644;4.734;2023-11-18T08:27:50;36.43;;;19.37;;
17488;SDS011;8861;52.644;4.734;2023-11-18T08:30:17;35.00;;;18.00;;
17488;SDS011;8861;52.644;4.734;2023-11-18T08:32:46;36.73;;;19.77;;
17488;SDS011;8861;52.644;4.734;2023-11-18T08:35:13;35.23;;;18.40;;
17488;SDS011;8861;52.644;4.734;2023-11-18T08:37:41;37.90;;;19.57;;
17488;SDS011;8861;52.644;4.734;2023-11-18T08:40:09;34.87;;;19.23;;
17488;SDS011;8861;52.644;4.734;2023-11-18T08:42:41;33.67;;;18.20;;
17488;SDS011;8861;52.644;4.734;2023-11-18T08:45:13;35.33;;;18.30;;
17488;SDS011;8861;52.644;4.734;2023-11-18T08:47:42;37.00;;;18.63;;
17488;SDS011;8861;52.644;4.734;2023-11-18T08:50:09;39.83;;;18.83;;
17488;SDS011;8861;52.644;4.734;2023-11-18T08:52:37;37.80;;;18.80;;
17488;SDS011;8861;52.644;4.734;2023-11-18T08:55:08;42.13;;;19.40;;
17488;SDS011;8861;52.644;4.734;2023-11-18T08:57:44;37.60;;;18.60;;
17488;SDS011;8861;52.644;4.734;2023-11-18T09:00:23;37.70;;;18.67;;
17488;SDS011;8861;52.644;4.734;2023-11-18T09:03:19;36.10;;;17.73;;
17488;SDS011;8861;52.644;4.734;2023-11-18T09:06:00;39.83;;;18.23;;
17488;SDS011;8861;52.644;4.734;2023-11-18T09:08:29;31.83;;;17.80;;
17488;SDS011;8861;52.644;4.734;2023-11-18T09:11:00;39.30;;;18.93;;
17488;SDS011;8861;52.644;4.734;2023-11-18T09:13:29;34.50;;;18.57;;
17488;SDS011;8861;52.644;4.734;2023-11-18T09:15:57;37.90;;;19.03;;
17488;SDS011;8861;52.644;4.734;2023-11-18T09:18:25;36.13;;;18.53;;
17488;SDS011;8861;52.644;4.734;2023-11-18T09:20:52;34.83;;;18.23;;
17488;SDS011;8861;52.644;4.734;2023-11-18T09:23:21;34.90;;;18.03;;
17488;SDS011;8861;52.644;4.734;2023-11-18T09:25:50;30.37;;;16.93;;
17488;SDS011;8861;52.644;4.734;2023-11-18T09:28:18;35.07;;;19.23;;
17488;SDS011;8861;52.644;4.734;2023-11-18T09:30:47;35.13;;;18.43;;
17488;SDS011;8861;52.644;4.734;2023-11-18T09:33:19;37.33;;;19.23;;
17488;SDS011;8861;52.644;4.734;2023-11-18T09:35:54;29.93;;;18.43;;
17488;SDS011;8861;52.644;4.734;2023-11-18T09:38:23;32.17;;;18.10;;
17488;SDS011;8861;52.644;4.734;2023-11-18T09:40:52;36.77;;;17.87;;
17488;SDS011;8861;52.644;4.734;2023-11-18T09:43:19;32.10;;;17.33;;
17488;SDS011;8861;52.644;4.734;2023-11-18T09:45:49;36.10;;;18.27;;
17488;SDS011;8861;52.644;4.734;2023-11-18T09:48:21;31.53;;;17.67;;
17488;SDS011;8861;52.644;4.734;2023-11-18T09:50:51;33.83;;;18.70;;
17488;SDS011;8861;52.644;4.734;2023-11-18T09:53:19;32.63;;;17.10;;
17488;SDS011;8861;52.644;4.734;2023-11-18T09:55:52;32.00;;;16.93;;
17488;SDS011;8861;52.644;4.734;2023-11-18T09:58:29;33.23;;;17.53;;
17488;SDS011;8861;52.644;4.734;2023-11-18T10:01:07;31.73;;;17.07;;
17488;SDS011;8861;52.644;4.734;2023-11-18T10:03:39;33.13;;;16.00;;
17488;SDS011;8861;52.644;4.734;2023-11-18T10:06:08;33.50;;;17.13;;
17488;SDS011;8861;52.644;4.734;2023-11-18T10:08:35;29.87;;;15.53;;
17488;SDS011;8861;52.644;4.734;2023-11-18T10:11:04;30.00;;;16.13;;
17488;SDS011;8861;52.644;4.734;2023-11-18T10:13:34;30.10;;;15.67;;
17488;SDS011;8861;52.644;4.734;2023-11-18T10:16:06;27.60;;;15.17;;
17488;SDS011;8861;52.644;4.734;2023-11-18T10:18:34;33.40;;;15.60;;
17488;SDS011;8861;52.644;4.734;2023-11-18T10:21:02;26.93;;;15.00;;
17488;SDS011;8861;52.644;4.734;2023-11-18T10:23:33;30.50;;;15.23;;
17488;SDS011;8861;52.644;4.734;2023-11-18T10:26:02;28.43;;;13.97;;
17488;SDS011;8861;52.644;4.734;2023-11-18T10:28:32;22.53;;;13.63;;
17488;SDS011;8861;52.644;4.734;2023-11-18T10:31:03;29.73;;;14.47;;
17488;SDS011;8861;52.644;4.734;2023-11-18T10:33:33;25.30;;;13.60;;
17488;SDS011;8861;52.644;4.734;2023-11-18T10:36:02;23.97;;;13.70;;
17488;SDS011;8861;52.644;4.734;2023-11-18T10:38:32;24.37;;;13.77;;
17488;SDS011;8861;52.644;4.734;2023-11-18T10:41:08;28.63;;;15.03;;
17488;SDS011;8861;52.644;4.734;2023-11-18T10:43:37;26.97;;;13.90;;
17488;SDS011;8861;52.644;4.734;2023-11-18T10:46:07;26.53;;;13.53;;
17488;SDS011;8861;52.644;4.734;2023-11-18T10:48:40;23.37;;;12.90;;
17488;SDS011;8861;52.644;4.734;2023-11-18T10:51:09;28.03;;;13.70;;
17488;SDS011;8861;52.644;4.734;2023-11-18T10:53:38;27.30;;;14.03;;
17488;SDS011;8861;52.644;4.734;2023-11-18T10:56:16;27.37;;;13.87;;
17488;SDS011;8861;52.644;4.734;2023-11-18T10:58:44;26.53;;;13.73;;
17488;SDS011;8861;52.644;4.734;2023-11-18T11:01:11;25.33;;;13.73;;
17488;SDS011;8861;52.644;4.734;2023-11-18T11:03:53;26.53;;;14.43;;
17488;SDS011;8861;52.644;4.734;2023-11-18T11:06:22;30.43;;;15.37;;
17488;SDS011;8861;52.644;4.734;2023-11-18T11:08:50;23.43;;;14.07;;
17488;SDS011;8861;52.644;4.734;2023-11-18T11:11:18;26.20;;;14.87;;
17488;SDS011;8861;52.644;4.734;2023-11-18T11:13:49;26.23;;;14.50;;
17488;SDS011;8861;52.644;4.734;2023-11-18T11:16:21;24.80;;;13.50;;
17488;SDS011;8861;52.644;4.734;2023-11-18T11:19:01;27.30;;;13.60;;
17488;SDS011;8861;52.644;4.734;2023-11-18T11:21:33;28.83;;;14.87;;
17488;SDS011;8861;52.644;4.734;2023-11-18T11:24:15;24.73;;;14.80;;
17488;SDS011;8861;52.644;4.734;2023-11-18T11:27:00;23.10;;;13.07;;
17488;SDS011;8861;52.644;4.734;2023-11-18T11:29:42;25.63;;;13.93;;
17488;SDS011;8861;52.644;4.734;2023-11-18T11:32:18;23.80;;;13.27;;
17488;SDS011;8861;52.644;4.734;2023-11-18T11:34:56;25.90;;;13.40;;
17488;SDS011;8861;52.644;4.734;2023-11-18T11:37:30;23.37;;;13.03;;
17488;SDS011;8861;52.644;4.734;2023-11-18T11:40:00;23.27;;;13.57;;
17488;SDS011;8861;52.644;4.734;2023-11-18T11:42:34;25.03;;;13.93;;
17488;SDS011;8861;52.644;4.734;2023-11-18T11:45:01;22.13;;;13.00;;
17488;SDS011;8861;52.644;4.734;2023-11-18T11:47:28;21.20;;;13.53;;
17488;SDS011;8861;52.644;4.734;2023-11-18T11:50:02;20.33;;;12.37;;
17488;SDS011;8861;52.644;4.734;2023-11-18T11:52:38;20.47;;;12.67;;
17488;SDS011;8861;52.644;4.734;2023-11-18T11:55:15;19.07;;;11.90;;
17488;SDS011;8861;52.644;4.734;2023-11-18T11:57:50;19.73;;;11.77;;
17488;SDS011;8861;52.644;4.734;2023-11-18T12:00:18;22.70;;;12.07;;
17488;SDS011;8861;52.644;4.734;2023-11-18T12:02:51;15.53;;;10.03;;
17488;SDS011;8861;52.644;4.734;2023-11-18T12:05:24;18.13;;;10.03;;
17488;SDS011;8861;52.644;4.734;2023-11-18T12:07:51;18.43;;;10.17;;
17488;SDS011;8861;52.644;4.734;2023-11-18T12:10:20;18.83;;;10.50;;
17488;SDS011;8861;52.644;4.734;2023-11-18T12:12:47;18.30;;;9.83;;
17488;SDS011;8861;52.644;4.734;2023-11-18T12:15:20;18.27;;;10.03;;
17488;SDS011;8861;52.644;4.734;2023-11-18T12:18:22;17.13;;;10.40;;
17488;SDS011;8861;52.644;4.734;2023-11-18T12:20:51;17.47;;;10.63;;
17488;SDS011;8861;52.644;4.734;2023-11-18T12:23:22;16.03;;;9.83;;
17488;SDS011;8861;52.644;4.734;2023-11-18T12:25:50;14.23;;;9.40;;
17488;SDS011;8861;52.644;4.734;2023-11-18T12:28:21;13.23;;;8.67;;
17488;SDS011;8861;52.644;4.734;2023-11-18T12:30:52;13.60;;;8.40;;
17488;SDS011;8861;52.644;4.734;2023-11-18T12:42:57;15.93;;;9.10;;
17488;SDS011;8861;52.644;4.734;2023-11-18T12:45:39;12.73;;;8.47;;
17488;SDS011;8861;52.644;4.734;2023-11-18T12:48:33;15.00;;;9.07;;
17488;SDS011;8861;52.644;4.734;2023-11-18T12:51:05;13.93;;;9.27;;
17488;SDS011;8861;52.644;4.734;2023-11-18T12:53:36;15.73;;;8.20;;
17488;SDS011;8861;52.644;4.734;2023-11-18T12:56:05;10.73;;;7.50;;
17488;SDS011;8861;52.644;4.734;2023-11-18T12:58:38;11.90;;;7.83;;
17488;SDS011;8861;52.644;4.734;2023-11-18T13:01:05;11.40;;;7.53;;
17488;SDS011;8861;52.644;4.734;2023-11-18T13:03:32;9.60;;;6.83;;
17488;SDS011;8861;52.644;4.734;2023-11-18T13:06:02;9.87;;;7.07;;
17488;SDS011;8861;52.644;4.734;2023-11-18T13:08:31;10.63;;;7.13;;
17488;SDS011;8861;52.644;4.734;2023-11-18T13:10:59;10.67;;;7.13;;
17488;SDS011;8861;52.644;4.734;2023-11-18T13:13:29;8.00;;;6.20;;
17488;SDS011;8861;52.644;4.734;2023-11-18T13:15:57;11.00;;;7.57;;
17488;SDS011;8861;52.644;4.734;2023-11-18T13:18:24;9.13;;;6.53;;
17488;SDS011;8861;52.644;4.734;2023-11-18T13:20:55;10.50;;;7.10;;
17488;SDS011;8861;52.644;4.734;2023-11-18T13:23:24;10.60;;;6.00;;
17488;SDS011;8861;52.644;4.734;2023-11-18T13:25:53;10.03;;;7.10;;
17488;SDS011;8861;52.644;4.734;2023-11-18T13:28:23;9.40;;;6.43;;
17488;SDS011;8861;52.644;4.734;2023-11-18T13:30:50;8.53;;;6.33;;
17488;SDS011;8861;52.644;4.734;2023-11-18T13:33:18;7.57;;;6.07;;
17488;SDS011;8861;52.644;4.734;2023-11-18T13:35:46;8.07;;;6.33;;
17488;SDS011;8861;52.644;4.734;2023-11-18T13:38:14;8.30;;;6.57;;
17488;SDS011;8861;52.644;4.734;2023-11-18T13:40:41;7.33;;;5.90;;
17488;SDS011;8861;52.644;4.734;2023-11-18T13:43:09;8.83;;;5.77;;
17488;SDS011;8861;52.644;4.734;2023-11-18T13:45:37;10.43;;;6.37;;
17488;SDS011;8861;52.644;4.734;2023-11-18T13:48:04;8.37;;;6.50;;
17488;SDS011;8861;52.644;4.734;2023-11-18T13:50:33;8.70;;;5.73;;
17488;SDS011;8861;52.644;4.734;2023-11-18T13:53:01;8.47;;;6.30;;
17488;SDS011;8861;52.644;4.734;2023-11-18T13:55:28;8.13;;;6.10;;
17488;SDS011;8861;52.644;4.734;2023-11-18T13:57:57;8.13;;;6.10;;
17488;SDS011;8861;52.644;4.734;2023-11-18T14:00:24;7.30;;;6.03;;
17488;SDS011;8861;52.644;4.734;2023-11-18T14:02:55;7.27;;;6.07;;
17488;SDS011;8861;52.644;4.734;2023-11-18T14:05:22;9.43;;;5.80;;
17488;SDS011;8861;52.644;4.734;2023-11-18T14:07:51;7.57;;;5.90;;
17488;SDS011;8861;52.644;4.734;2023-11-18T14:10:20;7.70;;;5.50;;
17488;SDS011;8861;52.644;4.734;2023-11-18T14:12:58;7.23;;;5.43;;
17488;SDS011;8861;52.644;4.734;2023-11-18T14:15:27;7.00;;;5.43;;
17488;SDS011;8861;52.644;4.734;2023-11-18T14:17:56;6.63;;;5.43;;
17488;SDS011;8861;52.644;4.734;2023-11-18T14:20:23;5.87;;;5.10;;
17488;SDS011;8861;52.644;4.734;2023-11-18T14:22:52;7.37;;;5.47;;
17488;SDS011;8861;52.644;4.734;2023-11-18T14:25:19;6.97;;;5.30;;
17488;SDS011;8861;52.644;4.734;2023-11-18T14:27:49;7.50;;;5.43;;
17488;SDS011;8861;52.644;4.734;2023-11-18T14:30:16;6.23;;;4.87;;
17488;SDS011;8861;52.644;4.734;2023-11-18T14:32:44;6.83;;;5.27;;
17488;SDS011;8861;52.644;4.734;2023-11-18T14:35:13;5.40;;;4.20;;
17488;SDS011;8861;52.644;4.734;2023-11-18T14:37:42;4.70;;;4.17;;
17488;SDS011;8861;52.644;4.734;2023-11-18T14:40:10;5.23;;;4.73;;
17488;SDS011;8861;52.644;4.734;2023-11-18T14:42:39;6.60;;;4.90;;
17488;SDS011;8861;52.644;4.734;2023-11-18T14:45:08;6.33;;;4.90;;
17488;SDS011;8861;52.644;4.734;2023-11-18T14:47:37;5.50;;;4.37;;
17488;SDS011;8861;52.644;4.734;2023-11-18T14:50:05;5.10;;;4.60;;
17488;SDS011;8861;52.644;4.734;2023-11-18T14:52:41;7.13;;;4.90;;
17488;SDS011;8861;52.644;4.734;2023-11-18T14:55:09;5.47;;;4.60;;
17488;SDS011;8861;52.644;4.734;2023-11-18T14:57:37;5.60;;;5.00;;
17488;SDS011;8861;52.644;4.734;2023-11-18T15:00:05;6.17;;;4.93;;